sensor_id;sensor_type;location;lat;lon;timestamp;temperature;humidity
64987;DHT22;51532;52.108;9.360;2023-02-13T00:00:32;6.70;86.60
64987;DHT22;51532;52.108;9.360;2023-02-13T00:02:59;6.70;86.60
64987;DHT22;51532;52.108;9.360;2023-02-13T00:05:26;6.70;86.50
64987;DHT22;51532;52.108;9.360;2023-02-13T00:07:53;6.70;86.50
64987;DHT22;51532;52.108;9.360;2023-02-13T00:10:20;6.70;86.50
64987;DHT22;51532;52.108;9.360;2023-02-13T00:12:46;6.70;86.60
64987;DHT22;51532;52.108;9.360;2023-02-13T00:15:13;6.70;86.60
64987;DHT22;51532;52.108;9.360;2023-02-13T00:17:40;6.70;86.50
64987;DHT22;51532;52.108;9.360;2023-02-13T00:20:08;6.70;86.60
64987;DHT22;51532;52.108;9.360;2023-02-13T00:22:36;6.70;86.50
64987;DHT22;51532;52.108;9.360;2023-02-13T00:25:05;6.70;86.50
64987;DHT22;51532;52.108;9.360;2023-02-13T00:27:32;6.70;86.40
64987;DHT22;51532;52.108;9.360;2023-02-13T00:30:00;6.70;86.50
64987;DHT22;51532;52.108;9.360;2023-02-13T00:32:28;6.70;86.50
64987;DHT22;51532;52.108;9.360;2023-02-13T00:34:54;6.70;86.40
64987;DHT22;51532;52.108;9.360;2023-02-13T00:37:22;6.70;86.40
64987;DHT22;51532;52.108;9.360;2023-02-13T00:39:51;6.70;86.30
64987;DHT22;51532;52.108;9.360;2023-02-13T00:42:18;6.70;86.20
64987;DHT22;51532;52.108;9.360;2023-02-13T00:44:45;6.70;86.20
64987;DHT22;51532;52.108;9.360;2023-02-13T00:47:12;6.60;86.20
64987;DHT22;51532;52.108;9.360;2023-02-13T00:49:40;6.70;86.20
64987;DHT22;51532;52.108;9.360;2023-02-13T00:52:07;6.70;86.10
64987;DHT22;51532;52.108;9.360;2023-02-13T00:54:38;6.70;86.10
64987;DHT22;51532;52.108;9.360;2023-02-13T00:57:05;6.70;86.00
64987;DHT22;51532;52.108;9.360;2023-02-13T00:59:31;6.60;86.10
64987;DHT22;51532;52.108;9.360;2023-02-13T01:01:59;6.70;86.10
64987;DHT22;51532;52.108;9.360;2023-02-13T01:04:26;6.60;86.00
64987;DHT22;51532;52.108;9.360;2023-02-13T01:06:56;6.60;86.20
64987;DHT22;51532;52.108;9.360;2023-02-13T01:09:23;6.60;86.20
64987;DHT22;51532;52.108;9.360;2023-02-13T01:11:50;6.60;86.10
64987;DHT22;51532;52.108;9.360;2023-02-13T01:14:17;6.60;86.10
64987;DHT22;51532;52.108;9.360;2023-02-13T01:16:46;6.60;86.20
64987;DHT22;51532;52.108;9.360;2023-02-13T01:19:12;6.60;86.30
64987;DHT22;51532;52.108;9.360;2023-02-13T01:21:39;6.60;86.30
64987;DHT22;51532;52.108;9.360;2023-02-13T01:24:06;6.60;86.30
64987;DHT22;51532;52.108;9.360;2023-02-13T01:26:34;6.60;86.20
64987;DHT22;51532;52.108;9.360;2023-02-13T01:29:01;6.60;86.30
64987;DHT22;51532;52.108;9.360;2023-02-13T01:31:28;6.60;86.30
64987;DHT22;51532;52.108;9.360;2023-02-13T01:33:56;6.60;86.20
64987;DHT22;51532;52.108;9.360;2023-02-13T01:36:24;6.60;86.00
64987;DHT22;51532;52.108;9.360;2023-02-13T01:38:57;6.60;86.00
64987;DHT22;51532;52.108;9.360;2023-02-13T01:41:26;6.60;86.10
64987;DHT22;51532;52.108;9.360;2023-02-13T01:49:14;6.60;86.00
64987;DHT22;51532;52.108;9.360;2023-02-13T01:51:44;6.60;85.90
64987;DHT22;51532;52.108;9.360;2023-02-13T01:54:17;6.60;85.90
64987;DHT22;51532;52.108;9.360;2023-02-13T01:56:54;6.60;85.90
64987;DHT22;51532;52.108;9.360;2023-02-13T01:59:33;6.60;85.90
64987;DHT22;51532;52.108;9.360;2023-02-13T02:02:02;6.60;85.80
64987;DHT22;51532;52.108;9.360;2023-02-13T02:04:31;6.60;85.80
64987;DHT22;51532;52.108;9.360;2023-02-13T02:07:07;6.60;85.90
64987;DHT22;51532;52.108;9.360;2023-02-13T02:09:37;6.60;86.00
64987;DHT22;51532;52.108;9.360;2023-02-13T02:14:52;6.60;85.90
64987;DHT22;51532;52.108;9.360;2023-02-13T02:17:22;6.60;85.90
64987;DHT22;51532;52.108;9.360;2023-02-13T02:20:13;6.60;86.00
64987;DHT22;51532;52.108;9.360;2023-02-13T02:23:03;6.60;85.90
64987;DHT22;51532;52.108;9.360;2023-02-13T02:34:34;6.50;85.90
64987;DHT22;51532;52.108;9.360;2023-02-13T02:37:15;6.50;85.90
64987;DHT22;51532;52.108;9.360;2023-02-13T02:40:09;6.50;85.90
64987;DHT22;51532;52.108;9.360;2023-02-13T02:48:16;6.50;86.00
64987;DHT22;51532;52.108;9.360;2023-02-13T02:51:18;6.50;86.10
64987;DHT22;51532;52.108;9.360;2023-02-13T02:54:18;6.50;85.90
64987;DHT22;51532;52.108;9.360;2023-02-13T02:57:16;6.50;86.00
64987;DHT22;51532;52.108;9.360;2023-02-13T02:59:52;6.50;85.80
64987;DHT22;51532;52.108;9.360;2023-02-13T03:02:38;6.40;85.80
64987;DHT22;51532;52.108;9.360;2023-02-13T03:05:28;6.40;86.00
64987;DHT22;51532;52.108;9.360;2023-02-13T03:08:14;6.40;86.00
64987;DHT22;51532;52.108;9.360;2023-02-13T03:11:01;6.40;86.00
64987;DHT22;51532;52.108;9.360;2023-02-13T03:13:48;6.40;85.90
64987;DHT22;51532;52.108;9.360;2023-02-13T03:16:19;6.40;85.90
64987;DHT22;51532;52.108;9.360;2023-02-13T03:19:12;6.40;85.90
64987;DHT22;51532;52.108;9.360;2023-02-13T03:22:22;6.40;86.00
64987;DHT22;51532;52.108;9.360;2023-02-13T03:27:49;6.40;86.00
64987;DHT22;51532;52.108;9.360;2023-02-13T03:33:36;6.40;86.00
64987;DHT22;51532;52.108;9.360;2023-02-13T03:36:45;6.40;86.00
64987;DHT22;51532;52.108;9.360;2023-02-13T03:43:14;6.40;85.90
64987;DHT22;51532;52.108;9.360;2023-02-13T03:45:29;6.40;85.90
64987;DHT22;51532;52.108;9.360;2023-02-13T03:48:21;6.40;85.70
64987;DHT22;51532;52.108;9.360;2023-02-13T03:51:09;6.40;85.70
64987;DHT22;51532;52.108;9.360;2023-02-13T03:53:39;6.40;85.70
64987;DHT22;51532;52.108;9.360;2023-02-13T03:56:08;6.40;85.50
64987;DHT22;51532;52.108;9.360;2023-02-13T03:58:56;6.40;85.50
64987;DHT22;51532;52.108;9.360;2023-02-13T04:01:39;6.40;85.50
64987;DHT22;51532;52.108;9.360;2023-02-13T04:04:27;6.40;85.60
64987;DHT22;51532;52.108;9.360;2023-02-13T04:07:07;6.40;85.50
64987;DHT22;51532;52.108;9.360;2023-02-13T04:09:38;6.40;85.30
64987;DHT22;51532;52.108;9.360;2023-02-13T04:12:20;6.40;85.40
64987;DHT22;51532;52.108;9.360;2023-02-13T04:15:03;6.40;85.20
64987;DHT22;51532;52.108;9.360;2023-02-13T04:17:36;6.40;85.10
64987;DHT22;51532;52.108;9.360;2023-02-13T04:20:05;6.40;85.10
64987;DHT22;51532;52.108;9.360;2023-02-13T04:22:32;6.40;85.00
64987;DHT22;51532;52.108;9.360;2023-02-13T04:24:59;6.40;85.00
64987;DHT22;51532;52.108;9.360;2023-02-13T04:27:27;6.40;85.00
64987;DHT22;51532;52.108;9.360;2023-02-13T04:29:54;6.40;85.00
64987;DHT22;51532;52.108;9.360;2023-02-13T04:32:20;6.40;85.10
64987;DHT22;51532;52.108;9.360;2023-02-13T04:34:47;6.40;85.10
64987;DHT22;51532;52.108;9.360;2023-02-13T04:37:14;6.40;85.10
64987;DHT22;51532;52.108;9.360;2023-02-13T04:39:41;6.40;85.10
64987;DHT22;51532;52.108;9.360;2023-02-13T04:42:07;6.40;85.10
64987;DHT22;51532;52.108;9.360;2023-02-13T04:44:34;6.40;85.00
64987;DHT22;51532;52.108;9.360;2023-02-13T04:47:01;6.50;85.00
64987;DHT22;51532;52.108;9.360;2023-02-13T04:49:28;6.50;84.70
64987;DHT22;51532;52.108;9.360;2023-02-13T04:51:54;6.50;84.60
64987;DHT22;51532;52.108;9.360;2023-02-13T04:54:21;6.50;84.70
64987;DHT22;51532;52.108;9.360;2023-02-13T04:56:48;6.40;84.60
64987;DHT22;51532;52.108;9.360;2023-02-13T04:59:14;6.40;84.60
64987;DHT22;51532;52.108;9.360;2023-02-13T05:01:41;6.40;84.80
64987;DHT22;51532;52.108;9.360;2023-02-13T05:04:08;6.40;84.80
64987;DHT22;51532;52.108;9.360;2023-02-13T05:06:36;6.40;84.80
64987;DHT22;51532;52.108;9.360;2023-02-13T05:09:04;6.40;84.80
64987;DHT22;51532;52.108;9.360;2023-02-13T05:11:31;6.40;84.90
64987;DHT22;51532;52.108;9.360;2023-02-13T05:13:58;6.40;84.80
64987;DHT22;51532;52.108;9.360;2023-02-13T05:16:24;6.40;84.80
64987;DHT22;51532;52.108;9.360;2023-02-13T05:18:51;6.40;84.70
64987;DHT22;51532;52.108;9.360;2023-02-13T05:21:20;6.40;84.80
64987;DHT22;51532;52.108;9.360;2023-02-13T05:24:06;6.40;84.80
64987;DHT22;51532;52.108;9.360;2023-02-13T05:26:32;6.40;84.70
64987;DHT22;51532;52.108;9.360;2023-02-13T05:28:59;6.40;84.70
64987;DHT22;51532;52.108;9.360;2023-02-13T05:31:56;6.40;84.80
64987;DHT22;51532;52.108;9.360;2023-02-13T05:34:25;6.40;84.70
64987;DHT22;51532;52.108;9.360;2023-02-13T05:36:53;6.40;84.80
64987;DHT22;51532;52.108;9.360;2023-02-13T05:39:19;6.40;84.80
64987;DHT22;51532;52.108;9.360;2023-02-13T05:41:47;6.40;84.80
64987;DHT22;51532;52.108;9.360;2023-02-13T05:44:15;6.30;84.90
64987;DHT22;51532;52.108;9.360;2023-02-13T05:46:42;6.30;84.80
64987;DHT22;51532;52.108;9.360;2023-02-13T05:49:12;6.30;84.90
64987;DHT22;51532;52.108;9.360;2023-02-13T05:51:39;6.40;84.90
64987;DHT22;51532;52.108;9.360;2023-02-13T05:54:07;6.30;84.90
64987;DHT22;51532;52.108;9.360;2023-02-13T05:56:33;6.30;84.90
64987;DHT22;51532;52.108;9.360;2023-02-13T05:59:00;6.40;84.80
64987;DHT22;51532;52.108;9.360;2023-02-13T06:01:27;6.40;84.80
64987;DHT22;51532;52.108;9.360;2023-02-13T06:03:54;6.40;84.80
64987;DHT22;51532;52.108;9.360;2023-02-13T06:06:24;6.40;84.70
64987;DHT22;51532;52.108;9.360;2023-02-13T06:08:51;6.40;84.60
64987;DHT22;51532;52.108;9.360;2023-02-13T06:11:18;6.40;84.60
64987;DHT22;51532;52.108;9.360;2023-02-13T06:13:45;6.40;84.60
64987;DHT22;51532;52.108;9.360;2023-02-13T06:16:12;6.40;84.50
64987;DHT22;51532;52.108;9.360;2023-02-13T06:18:39;6.40;84.60
64987;DHT22;51532;52.108;9.360;2023-02-13T06:21:07;6.40;84.60
64987;DHT22;51532;52.108;9.360;2023-02-13T06:23:34;6.40;84.70
64987;DHT22;51532;52.108;9.360;2023-02-13T06:26:05;6.40;84.70
64987;DHT22;51532;52.108;9.360;2023-02-13T06:28:33;6.40;84.60
64987;DHT22;51532;52.108;9.360;2023-02-13T06:31:00;6.40;84.50
64987;DHT22;51532;52.108;9.360;2023-02-13T06:33:27;6.40;84.50
64987;DHT22;51532;52.108;9.360;2023-02-13T06:35:54;6.40;84.50
64987;DHT22;51532;52.108;9.360;2023-02-13T06:38:21;6.40;84.40
64987;DHT22;51532;52.108;9.360;2023-02-13T06:40:48;6.40;84.30
64987;DHT22;51532;52.108;9.360;2023-02-13T06:43:16;6.40;84.00
64987;DHT22;51532;52.108;9.360;2023-02-13T06:45:44;6.40;83.80
64987;DHT22;51532;52.108;9.360;2023-02-13T06:48:12;6.40;83.70
64987;DHT22;51532;52.108;9.360;2023-02-13T06:50:40;6.40;83.80
64987;DHT22;51532;52.108;9.360;2023-02-13T06:53:07;6.50;83.30
64987;DHT22;51532;52.108;9.360;2023-02-13T06:55:34;6.50;83.40
64987;DHT22;51532;52.108;9.360;2023-02-13T06:58:01;6.50;83.30
64987;DHT22;51532;52.108;9.360;2023-02-13T07:00:28;6.40;83.20
64987;DHT22;51532;52.108;9.360;2023-02-13T07:03:03;6.50;82.90
64987;DHT22;51532;52.108;9.360;2023-02-13T07:05:31;6.50;82.60
64987;DHT22;51532;52.108;9.360;2023-02-13T07:07:58;6.50;82.90
64987;DHT22;51532;52.108;9.360;2023-02-13T07:10:25;6.40;82.90
64987;DHT22;51532;52.108;9.360;2023-02-13T07:12:52;6.40;83.00
64987;DHT22;51532;52.108;9.360;2023-02-13T07:15:32;6.40;83.00
64987;DHT22;51532;52.108;9.360;2023-02-13T07:17:59;6.50;83.00
64987;DHT22;51532;52.108;9.360;2023-02-13T07:20:26;6.50;82.90
64987;DHT22;51532;52.108;9.360;2023-02-13T07:23:00;6.40;82.80
64987;DHT22;51532;52.108;9.360;2023-02-13T07:25:28;6.40;82.90
64987;DHT22;51532;52.108;9.360;2023-02-13T07:28:00;6.40;82.70
64987;DHT22;51532;52.108;9.360;2023-02-13T07:30:29;6.50;82.50
64987;DHT22;51532;52.108;9.360;2023-02-13T07:33:00;6.50;82.20
64987;DHT22;51532;52.108;9.360;2023-02-13T07:35:27;6.50;82.10
64987;DHT22;51532;52.108;9.360;2023-02-13T07:37:53;6.50;82.10
64987;DHT22;51532;52.108;9.360;2023-02-13T07:40:21;6.50;82.30
64987;DHT22;51532;52.108;9.360;2023-02-13T07:42:47;6.50;82.40
64987;DHT22;51532;52.108;9.360;2023-02-13T07:45:14;6.50;82.70
64987;DHT22;51532;52.108;9.360;2023-02-13T07:47:42;6.60;82.70
64987;DHT22;51532;52.108;9.360;2023-02-13T07:50:09;6.60;82.60
64987;DHT22;51532;52.108;9.360;2023-02-13T07:52:36;6.60;82.50
64987;DHT22;51532;52.108;9.360;2023-02-13T07:55:04;6.60;82.60
64987;DHT22;51532;52.108;9.360;2023-02-13T07:57:32;6.60;82.40
64987;DHT22;51532;52.108;9.360;2023-02-13T07:59:59;6.60;82.40
64987;DHT22;51532;52.108;9.360;2023-02-13T08:02:26;6.60;82.20
64987;DHT22;51532;52.108;9.360;2023-02-13T08:04:53;6.60;82.70
64987;DHT22;51532;52.108;9.360;2023-02-13T08:07:19;6.60;82.80
64987;DHT22;51532;52.108;9.360;2023-02-13T08:09:46;6.60;82.70
64987;DHT22;51532;52.108;9.360;2023-02-13T08:12:34;6.60;82.90
64987;DHT22;51532;52.108;9.360;2023-02-13T08:15:01;6.60;82.80
64987;DHT22;51532;52.108;9.360;2023-02-13T08:17:29;6.60;82.80
64987;DHT22;51532;52.108;9.360;2023-02-13T08:19:56;6.60;83.00
64987;DHT22;51532;52.108;9.360;2023-02-13T08:22:23;6.60;83.10
64987;DHT22;51532;52.108;9.360;2023-02-13T08:24:50;6.60;83.10
64987;DHT22;51532;52.108;9.360;2023-02-13T08:27:17;6.60;83.30
64987;DHT22;51532;52.108;9.360;2023-02-13T08:29:44;6.60;83.40
64987;DHT22;51532;52.108;9.360;2023-02-13T08:32:10;6.70;83.10
64987;DHT22;51532;52.108;9.360;2023-02-13T08:34:38;6.60;83.40
64987;DHT22;51532;52.108;9.360;2023-02-13T08:37:04;6.60;83.50
64987;DHT22;51532;52.108;9.360;2023-02-13T08:39:31;6.70;83.10
64987;DHT22;51532;52.108;9.360;2023-02-13T08:41:58;6.60;83.10
64987;DHT22;51532;52.108;9.360;2023-02-13T08:44:25;6.60;82.80
64987;DHT22;51532;52.108;9.360;2023-02-13T08:46:51;6.60;82.50
64987;DHT22;51532;52.108;9.360;2023-02-13T08:49:18;6.60;81.80
64987;DHT22;51532;52.108;9.360;2023-02-13T08:51:45;6.60;82.00
64987;DHT22;51532;52.108;9.360;2023-02-13T08:54:12;6.60;81.90
64987;DHT22;51532;52.108;9.360;2023-02-13T08:56:40;6.60;81.50
64987;DHT22;51532;52.108;9.360;2023-02-13T08:59:07;6.50;81.50
64987;DHT22;51532;52.108;9.360;2023-02-13T09:01:34;6.60;81.50
64987;DHT22;51532;52.108;9.360;2023-02-13T09:04:01;6.60;81.60
64987;DHT22;51532;52.108;9.360;2023-02-13T09:06:28;6.60;81.00
64987;DHT22;51532;52.108;9.360;2023-02-13T09:08:55;6.50;81.50
64987;DHT22;51532;52.108;9.360;2023-02-13T09:11:22;6.60;81.80
64987;DHT22;51532;52.108;9.360;2023-02-13T09:13:52;6.70;81.50
64987;DHT22;51532;52.108;9.360;2023-02-13T09:16:19;6.70;81.20
64987;DHT22;51532;52.108;9.360;2023-02-13T09:18:48;6.60;80.70
64987;DHT22;51532;52.108;9.360;2023-02-13T09:21:15;6.60;81.10
64987;DHT22;51532;52.108;9.360;2023-02-13T09:23:42;6.70;80.60
64987;DHT22;51532;52.108;9.360;2023-02-13T09:26:11;6.70;80.60
64987;DHT22;51532;52.108;9.360;2023-02-13T09:28:39;6.70;80.50
64987;DHT22;51532;52.108;9.360;2023-02-13T09:31:08;6.80;80.10
64987;DHT22;51532;52.108;9.360;2023-02-13T09:33:36;6.90;79.80
64987;DHT22;51532;52.108;9.360;2023-02-13T09:36:07;6.90;79.50
64987;DHT22;51532;52.108;9.360;2023-02-13T09:38:34;6.90;78.90
64987;DHT22;51532;52.108;9.360;2023-02-13T09:43:52;6.90;78.90
64987;DHT22;51532;52.108;9.360;2023-02-13T09:46:37;6.90;78.70
64987;DHT22;51532;52.108;9.360;2023-02-13T09:49:12;7.00;78.30
64987;DHT22;51532;52.108;9.360;2023-02-13T09:51:43;7.10;78.30
64987;DHT22;51532;52.108;9.360;2023-02-13T09:54:15;7.20;77.80
64987;DHT22;51532;52.108;9.360;2023-02-13T09:57:03;7.20;78.20
64987;DHT22;51532;52.108;9.360;2023-02-13T10:02:36;7.20;77.50
64987;DHT22;51532;52.108;9.360;2023-02-13T10:14:26;7.40;77.00
64987;DHT22;51532;52.108;9.360;2023-02-13T10:17:04;7.50;76.60
64987;DHT22;51532;52.108;9.360;2023-02-13T10:22:19;7.40;76.60
64987;DHT22;51532;52.108;9.360;2023-02-13T10:24:50;7.50;76.30
64987;DHT22;51532;52.108;9.360;2023-02-13T10:27:24;7.50;76.50
64987;DHT22;51532;52.108;9.360;2023-02-13T10:29:58;7.50;76.10
64987;DHT22;51532;52.108;9.360;2023-02-13T10:35:27;7.80;76.00
64987;DHT22;51532;52.108;9.360;2023-02-13T10:37:57;7.80;75.70
64987;DHT22;51532;52.108;9.360;2023-02-13T10:40:31;7.70;76.00
64987;DHT22;51532;52.108;9.360;2023-02-13T10:43:08;7.70;75.50
64987;DHT22;51532;52.108;9.360;2023-02-13T10:45:57;7.80;75.50
64987;DHT22;51532;52.108;9.360;2023-02-13T10:52:03;7.90;75.20
64987;DHT22;51532;52.108;9.360;2023-02-13T10:54:48;7.90;75.00
64987;DHT22;51532;52.108;9.360;2023-02-13T11:00:39;7.70;75.80
64987;DHT22;51532;52.108;9.360;2023-02-13T11:03:17;7.80;75.40
64987;DHT22;51532;52.108;9.360;2023-02-13T11:05:44;7.80;75.60
64987;DHT22;51532;52.108;9.360;2023-02-13T11:08:32;7.80;75.20
64987;DHT22;51532;52.108;9.360;2023-02-13T11:10:59;7.80;75.40
64987;DHT22;51532;52.108;9.360;2023-02-13T11:13:28;7.90;75.40
64987;DHT22;51532;52.108;9.360;2023-02-13T11:16:07;7.90;75.20
64987;DHT22;51532;52.108;9.360;2023-02-13T11:18:38;8.00;75.20
64987;DHT22;51532;52.108;9.360;2023-02-13T11:21:10;7.90;75.40
64987;DHT22;51532;52.108;9.360;2023-02-13T11:23:45;8.00;75.00
64987;DHT22;51532;52.108;9.360;2023-02-13T11:26:31;8.00;74.70
64987;DHT22;51532;52.108;9.360;2023-02-13T11:29:03;8.00;75.00
64987;DHT22;51532;52.108;9.360;2023-02-13T11:31:33;8.10;74.50
64987;DHT22;51532;52.108;9.360;2023-02-13T11:34:23;8.20;74.50
64987;DHT22;51532;52.108;9.360;2023-02-13T11:36:53;8.30;74.00
64987;DHT22;51532;52.108;9.360;2023-02-13T11:39:22;8.50;73.40
64987;DHT22;51532;52.108;9.360;2023-02-13T11:41:51;8.40;73.40
64987;DHT22;51532;52.108;9.360;2023-02-13T11:44:28;8.50;73.20
64987;DHT22;51532;52.108;9.360;2023-02-13T11:46:57;8.50;72.70
64987;DHT22;51532;52.108;9.360;2023-02-13T11:49:27;8.40;73.00
64987;DHT22;51532;52.108;9.360;2023-02-13T11:51:57;8.30;73.00
64987;DHT22;51532;52.108;9.360;2023-02-13T11:54:35;8.40;72.60
64987;DHT22;51532;52.108;9.360;2023-02-13T11:57:31;8.30;72.80
64987;DHT22;51532;52.108;9.360;2023-02-13T12:00:00;8.30;72.90
64987;DHT22;51532;52.108;9.360;2023-02-13T12:02:47;8.30;73.10
64987;DHT22;51532;52.108;9.360;2023-02-13T12:05:22;8.40;72.50
64987;DHT22;51532;52.108;9.360;2023-02-13T12:07:50;8.60;72.00
64987;DHT22;51532;52.108;9.360;2023-02-13T12:10:28;8.60;72.10
64987;DHT22;51532;52.108;9.360;2023-02-13T12:16:14;8.60;71.60
64987;DHT22;51532;52.108;9.360;2023-02-13T12:18:51;8.30;72.00
64987;DHT22;51532;52.108;9.360;2023-02-13T12:24:46;8.20;73.10
64987;DHT22;51532;52.108;9.360;2023-02-13T12:33:06;8.20;72.70
64987;DHT22;51532;52.108;9.360;2023-02-13T12:38:53;8.30;72.70
64987;DHT22;51532;52.108;9.360;2023-02-13T12:42:05;8.30;74.00
64987;DHT22;51532;52.108;9.360;2023-02-13T12:44:43;8.40;72.70
64987;DHT22;51532;52.108;9.360;2023-02-13T12:47:21;8.40;71.70
64987;DHT22;51532;52.108;9.360;2023-02-13T13:01:01;8.60;70.40
64987;DHT22;51532;52.108;9.360;2023-02-13T13:09:30;8.40;71.00
64987;DHT22;51532;52.108;9.360;2023-02-13T13:13:01;8.40;71.50
64987;DHT22;51532;52.108;9.360;2023-02-13T13:15:31;8.60;71.20
64987;DHT22;51532;52.108;9.360;2023-02-13T13:18:00;8.50;71.00
64987;DHT22;51532;52.108;9.360;2023-02-13T13:20:42;8.70;70.50
64987;DHT22;51532;52.108;9.360;2023-02-13T13:23:19;8.60;70.50
64987;DHT22;51532;52.108;9.360;2023-02-13T13:28:27;8.60;70.70
64987;DHT22;51532;52.108;9.360;2023-02-13T13:30:56;8.50;70.70
64987;DHT22;51532;52.108;9.360;2023-02-13T13:33:25;8.60;70.90
64987;DHT22;51532;52.108;9.360;2023-02-13T13:35:58;8.60;70.40
64987;DHT22;51532;52.108;9.360;2023-02-13T13:38:35;8.90;69.90
64987;DHT22;51532;52.108;9.360;2023-02-13T13:51:41;8.60;69.90
64987;DHT22;51532;52.108;9.360;2023-02-13T13:57:04;8.50;70.00
64987;DHT22;51532;52.108;9.360;2023-02-13T14:05:09;8.50;70.30
64987;DHT22;51532;52.108;9.360;2023-02-13T14:07:43;8.40;70.70
64987;DHT22;51532;52.108;9.360;2023-02-13T14:25:46;8.40;70.60
64987;DHT22;51532;52.108;9.360;2023-02-13T14:28:24;8.50;70.40
64987;DHT22;51532;52.108;9.360;2023-02-13T14:31:04;8.60;70.10
64987;DHT22;51532;52.108;9.360;2023-02-13T14:33:32;8.50;70.10
64987;DHT22;51532;52.108;9.360;2023-02-13T14:36:20;8.50;70.10
64987;DHT22;51532;52.108;9.360;2023-02-13T14:46:55;8.00;71.90
64987;DHT22;51532;52.108;9.360;2023-02-13T14:49:26;8.00;72.10
64987;DHT22;51532;52.108;9.360;2023-02-13T14:52:03;7.90;72.20
64987;DHT22;51532;52.108;9.360;2023-02-13T14:54:35;7.80;72.60
64987;DHT22;51532;52.108;9.360;2023-02-13T14:57:34;7.90;72.50
64987;DHT22;51532;52.108;9.360;2023-02-13T15:00:19;7.90;72.70
64987;DHT22;51532;52.108;9.360;2023-02-13T15:02:53;7.90;72.70
64987;DHT22;51532;52.108;9.360;2023-02-13T15:05:27;7.80;73.00
64987;DHT22;51532;52.108;9.360;2023-02-13T15:10:53;7.70;73.90
64987;DHT22;51532;52.108;9.360;2023-02-13T15:13:23;7.60;73.70
64987;DHT22;51532;52.108;9.360;2023-02-13T15:18:40;7.50;74.10
64987;DHT22;51532;52.108;9.360;2023-02-13T15:21:14;7.50;74.40
64987;DHT22;51532;52.108;9.360;2023-02-13T15:23:42;7.50;74.30
64987;DHT22;51532;52.108;9.360;2023-02-13T15:26:20;7.60;74.20
64987;DHT22;51532;52.108;9.360;2023-02-13T15:29:18;7.60;74.20
64987;DHT22;51532;52.108;9.360;2023-02-13T15:32:19;7.80;73.60
64987;DHT22;51532;52.108;9.360;2023-02-13T15:34:47;7.80;73.30
64987;DHT22;51532;52.108;9.360;2023-02-13T15:37:22;7.60;73.60
64987;DHT22;51532;52.108;9.360;2023-02-13T15:39:49;7.60;73.80
64987;DHT22;51532;52.108;9.360;2023-02-13T15:42:16;7.50;74.30
64987;DHT22;51532;52.108;9.360;2023-02-13T15:44:46;7.50;74.40
64987;DHT22;51532;52.108;9.360;2023-02-13T15:47:27;7.40;74.40
64987;DHT22;51532;52.108;9.360;2023-02-13T15:49:55;7.50;74.50
64987;DHT22;51532;52.108;9.360;2023-02-13T15:52:33;7.40;74.90
64987;DHT22;51532;52.108;9.360;2023-02-13T15:55:02;7.40;74.90
64987;DHT22;51532;52.108;9.360;2023-02-13T15:57:30;7.40;74.90
64987;DHT22;51532;52.108;9.360;2023-02-13T15:59:59;7.50;75.00
64987;DHT22;51532;52.108;9.360;2023-02-13T16:02:45;7.50;74.70
64987;DHT22;51532;52.108;9.360;2023-02-13T16:05:14;7.40;75.00
64987;DHT22;51532;52.108;9.360;2023-02-13T16:07:55;7.30;75.00
64987;DHT22;51532;52.108;9.360;2023-02-13T16:10:33;7.40;74.90
64987;DHT22;51532;52.108;9.360;2023-02-13T16:13:03;7.20;75.30
64987;DHT22;51532;52.108;9.360;2023-02-13T16:15:33;7.00;75.30
64987;DHT22;51532;52.108;9.360;2023-02-13T16:18:02;7.00;76.10
64987;DHT22;51532;52.108;9.360;2023-02-13T16:20:32;7.10;76.30
64987;DHT22;51532;52.108;9.360;2023-02-13T16:23:06;7.10;76.10
64987;DHT22;51532;52.108;9.360;2023-02-13T16:25:39;7.00;76.10
64987;DHT22;51532;52.108;9.360;2023-02-13T16:28:17;7.00;76.20
64987;DHT22;51532;52.108;9.360;2023-02-13T16:30:51;7.00;76.20
64987;DHT22;51532;52.108;9.360;2023-02-13T16:33:22;7.00;76.10
64987;DHT22;51532;52.108;9.360;2023-02-13T16:35:51;6.90;76.50
64987;DHT22;51532;52.108;9.360;2023-02-13T16:41:04;6.90;76.90
64987;DHT22;51532;52.108;9.360;2023-02-13T16:43:41;6.90;76.90
64987;DHT22;51532;52.108;9.360;2023-02-13T16:48:46;6.70;77.20
64987;DHT22;51532;52.108;9.360;2023-02-13T16:51:15;6.60;77.10
64987;DHT22;51532;52.108;9.360;2023-02-13T16:53:42;6.40;77.50
64987;DHT22;51532;52.108;9.360;2023-02-13T16:56:10;6.30;78.00
64987;DHT22;51532;52.108;9.360;2023-02-13T16:58:37;6.20;78.40
64987;DHT22;51532;52.108;9.360;2023-02-13T17:01:04;6.00;78.90
64987;DHT22;51532;52.108;9.360;2023-02-13T17:03:31;6.00;79.10
64987;DHT22;51532;52.108;9.360;2023-02-13T17:06:02;5.90;79.20
64987;DHT22;51532;52.108;9.360;2023-02-13T17:08:29;5.80;79.90
64987;DHT22;51532;52.108;9.360;2023-02-13T17:11:07;5.70;80.10
64987;DHT22;51532;52.108;9.360;2023-02-13T17:13:34;5.60;80.40
64987;DHT22;51532;52.108;9.360;2023-02-13T17:16:00;5.50;80.70
64987;DHT22;51532;52.108;9.360;2023-02-13T17:18:27;5.50;80.70
64987;DHT22;51532;52.108;9.360;2023-02-13T17:20:54;5.40;81.20
64987;DHT22;51532;52.108;9.360;2023-02-13T17:23:24;5.40;81.40
64987;DHT22;51532;52.108;9.360;2023-02-13T17:25:52;5.30;81.50
64987;DHT22;51532;52.108;9.360;2023-02-13T17:28:24;5.30;81.70
64987;DHT22;51532;52.108;9.360;2023-02-13T17:30:54;5.30;81.60
64987;DHT22;51532;52.108;9.360;2023-02-13T17:33:30;5.20;81.70
64987;DHT22;51532;52.108;9.360;2023-02-13T17:35:57;5.10;82.20
64987;DHT22;51532;52.108;9.360;2023-02-13T17:38:24;5.10;82.30
64987;DHT22;51532;52.108;9.360;2023-02-13T17:40:51;5.10;82.00
64987;DHT22;51532;52.108;9.360;2023-02-13T17:43:19;5.10;82.00
64987;DHT22;51532;52.108;9.360;2023-02-13T17:45:47;5.10;82.00
64987;DHT22;51532;52.108;9.360;2023-02-13T17:48:15;5.00;81.90
64987;DHT22;51532;52.108;9.360;2023-02-13T17:50:42;5.00;82.00
64987;DHT22;51532;52.108;9.360;2023-02-13T17:53:24;4.90;82.30
64987;DHT22;51532;52.108;9.360;2023-02-13T17:55:51;4.80;82.30
64987;DHT22;51532;52.108;9.360;2023-02-13T17:58:18;4.70;82.60
64987;DHT22;51532;52.108;9.360;2023-02-13T18:00:45;4.70;82.60
64987;DHT22;51532;52.108;9.360;2023-02-13T18:03:12;4.50;82.90
64987;DHT22;51532;52.108;9.360;2023-02-13T18:05:39;4.50;83.20
64987;DHT22;51532;52.108;9.360;2023-02-13T18:08:07;4.40;83.30
64987;DHT22;51532;52.108;9.360;2023-02-13T18:10:35;4.40;83.30
64987;DHT22;51532;52.108;9.360;2023-02-13T18:13:03;4.30;83.30
64987;DHT22;51532;52.108;9.360;2023-02-13T18:15:32;4.30;83.70
64987;DHT22;51532;52.108;9.360;2023-02-13T18:17:59;4.20;83.70
64987;DHT22;51532;52.108;9.360;2023-02-13T18:20:26;4.20;83.80
64987;DHT22;51532;52.108;9.360;2023-02-13T18:22:53;4.20;84.00
64987;DHT22;51532;52.108;9.360;2023-02-13T18:25:20;4.20;84.10
64987;DHT22;51532;52.108;9.360;2023-02-13T18:27:47;4.20;84.20
64987;DHT22;51532;52.108;9.360;2023-02-13T18:30:16;4.20;84.20
64987;DHT22;51532;52.108;9.360;2023-02-13T18:32:44;4.20;84.30
64987;DHT22;51532;52.108;9.360;2023-02-13T18:35:11;4.20;84.30
64987;DHT22;51532;52.108;9.360;2023-02-13T18:37:38;4.20;84.30
64987;DHT22;51532;52.108;9.360;2023-02-13T18:40:06;4.20;84.30
64987;DHT22;51532;52.108;9.360;2023-02-13T18:42:33;4.20;84.20